Time;durP1;ratioP1;P1;durP2;ratioP2;P2;SDS_P1;SDS_P2;PMS_P1;PMS_P2;Temp;Humidity;BMP_temperature;BMP_pressure;BME280_temperature;BME280_humidity;BME280_pressure;Samples;Min_cycle;Max_cycle;Signal;HPM_P1;HPM_P2
2024/01/23 00:01:33;;;;;;;21.20;12.70;;;;;;;4.24;100.00;100282.75;51919;1260;1076080;-76
2024/01/23 00:04:18;;;;;;;20.70;12.50;;;;;;;4.27;100.00;100288.79;51706;1263;1078905;-76
2024/01/23 00:07:04;;;;;;;25.40;13.70;;;;;;;4.30;100.00;100292.96;51725;1258;1076287;-75
2024/01/23 00:09:50;;;;;;;25.30;13.10;;;;;;;4.32;100.00;100294.45;51765;1258;1078009;-76
2024/01/23 00:12:36;;;;;;;19.80;12.80;;;;;;;4.34;100.00;100293.42;51780;1261;1076471;-75
2024/01/23 00:15:22;;;;;;;22.20;13.20;;;;;;;4.36;100.00;100286.02;51798;1264;1076140;-75
2024/01/23 00:18:08;;;;;;;22.60;12.60;;;;;;;4.38;100.00;100283.95;51781;1272;1076257;-75
2024/01/23 00:20:54;;;;;;;20.50;11.30;;;;;;;4.42;100.00;100287.33;51865;1258;1076559;-76
2024/01/23 00:23:40;;;;;;;24.10;12.90;;;;;;;4.44;100.00;100284.23;51840;1258;1077081;-76
2024/01/23 00:26:25;;;;;;;22.20;13.40;;;;;;;4.47;100.00;100286.20;51726;1263;1076736;-77
2024/01/23 00:29:11;;;;;;;20.10;12.50;;;;;;;4.50;100.00;100287.00;51705;1256;1077604;-76
2024/01/23 00:31:57;;;;;;;21.00;11.80;;;;;;;4.52;100.00;100289.84;51745;1258;1076424;-77
2024/01/23 00:34:43;;;;;;;19.00;11.40;;;;;;;4.54;100.00;100291.39;51833;1258;1076827;-75
2024/01/23 00:37:29;;;;;;;22.90;12.80;;;;;;;4.55;100.00;100287.31;51836;1259;1076975;-76
2024/01/23 00:40:15;;;;;;;18.70;11.60;;;;;;;4.57;100.00;100286.83;51800;1258;1078395;-76
2024/01/23 00:43:00;;;;;;;22.50;12.00;;;;;;;4.56;100.00;100295.15;51756;1264;1076912;-76
2024/01/23 00:45:46;;;;;;;23.20;12.00;;;;;;;4.58;100.00;100301.74;51701;1261;1076895;-75
2024/01/23 00:48:32;;;;;;;21.40;12.00;;;;;;;4.59;100.00;100301.56;51752;1261;1076603;-76
2024/01/23 00:51:18;;;;;;;22.00;11.60;;;;;;;4.60;100.00;100301.84;51782;1256;1076710;-76
2024/01/23 00:54:03;;;;;;;20.80;11.20;;;;;;;4.61;100.00;100305.98;51822;1256;1076517;-76
2024/01/23 00:56:49;;;;;;;19.60;11.60;;;;;;;4.62;100.00;100310.14;51719;1260;1076865;-76
2024/01/23 00:59:35;;;;;;;22.40;11.90;;;;;;;4.61;100.00;100311.05;51691;1260;1076662;-76
2024/01/23 01:02:21;;;;;;;23.20;12.60;;;;;;;4.61;100.00;100311.80;51766;1262;1077379;-77
2024/01/23 01:05:07;;;;;;;21.80;12.00;;;;;;;4.62;100.00;100323.77;51885;1256;1076285;-75
2024/01/23 01:07:54;;;;;;;20.40;10.80;;;;;;;4.62;100.00;100325.83;51926;1257;1076010;-76
2024/01/23 01:10:40;;;;;;;19.40;10.90;;;;;;;4.62;100.00;100325.70;51801;1262;1077661;-76
2024/01/23 01:13:26;;;;;;;17.00;10.60;;;;;;;4.63;100.00;100319.75;51681;1264;1076988;-76
2024/01/23 01:16:12;;;;;;;17.10;10.30;;;;;;;4.65;100.00;100319.35;51778;1264;1075943;-75
2024/01/23 01:18:58;;;;;;;19.40;10.80;;;;;;;4.68;100.00;100325.09;51721;1264;1077535;-77
2024/01/23 01:21:44;;;;;;;18.00;10.30;;;;;;;4.71;100.00;100330.83;51689;1264;1076889;-76
2024/01/23 01:24:30;;;;;;;17.90;11.20;;;;;;;4.72;100.00;100330.90;51800;1258;1077047;-76
2024/01/23 01:27:16;;;;;;;21.10;12.20;;;;;;;4.72;100.00;100331.92;51855;1258;1077393;-76
2024/01/23 01:30:04;;;;;;;16.40;9.90;;;;;;;4.73;100.00;100337.89;51804;1262;1076337;-76
2024/01/23 01:32:50;;;;;;;18.80;11.20;;;;;;;4.73;100.00;100332.36;51806;1258;1076516;-76
2024/01/23 01:35:35;;;;;;;18.00;10.40;;;;;;;4.74;100.00;100335.79;51872;1262;1078183;-76
2024/01/23 01:38:21;;;;;;;20.30;11.30;;;;;;;4.73;99.98;100335.23;51648;1258;1077044;-76
2024/01/23 01:41:08;;;;;;;16.50;9.40;;;;;;;4.71;99.92;100332.42;51837;1257;1076165;-76
2024/01/23 01:43:53;;;;;;;18.80;10.40;;;;;;;4.69;99.97;100340.90;51759;1261;1076643;-76
2024/01/23 01:46:43;;;;;;;17.80;11.20;;;;;;;4.68;99.98;100339.30;51736;1262;1076453;-76
2024/01/23 01:49:29;;;;;;;17.40;10.00;;;;;;;4.67;99.75;100346.61;51885;1258;1077592;-77
2024/01/23 01:52:15;;;;;;;16.50;10.00;;;;;;;4.64;99.96;100351.25;51914;1262;1076241;-76
2024/01/23 01:55:01;;;;;;;18.30;9.50;;;;;;;4.63;100.00;100351.73;51896;1264;1076419;-76
2024/01/23 01:57:47;;;;;;;15.40;9.80;;;;;;;4.62;99.94;100349.23;51726;1258;1077064;-76
2024/01/23 02:00:33;;;;;;;15.40;9.90;;;;;;;4.61;100.00;100350.55;51891;1264;1077525;-77
2024/01/23 02:03:21;;;;;;;15.10;9.30;;;;;;;4.60;100.00;100356.16;51830;1256;1077426;-76
2024/01/23 02:06:07;;;;;;;17.60;9.70;;;;;;;4.59;99.97;100347.59;51814;1261;1076795;-77
2024/01/23 02:08:54;;;;;;;14.20;9.30;;;;;;;4.58;100.00;100352.42;51803;1261;1076763;-76
2024/01/23 02:11:59;;;;;;;16.60;10.50;;;;;;;4.58;100.00;100352.81;51798;1264;1076818;-76
2024/01/23 02:14:45;;;;;;;17.90;9.90;;;;;;;4.58;100.00;100356.86;51895;1258;1076114;-76
2024/01/23 02:17:31;;;;;;;16.40;10.00;;;;;;;4.58;100.00;100355.06;52469;1262;1076758;-75
2024/01/23 02:20:17;;;;;;;15.80;9.30;;;;;;;4.58;100.00;100356.70;51713;1261;1076778;-75
2024/01/23 02:23:03;;;;;;;13.50;9.00;;;;;;;4.59;100.00;100357.00;51741;1259;1076813;-76
2024/01/23 02:25:49;;;;;;;15.30;8.80;;;;;;;4.57;100.00;100355.03;51743;1260;1078300;-77
2024/01/23 02:28:35;;;;;;;16.70;8.70;;;;;;;4.56;100.00;100357.77;51872;1258;1076992;-74
2024/01/23 02:31:21;;;;;;;17.40;9.30;;;;;;;4.56;100.00;100362.75;51745;1258;1076069;-75
2024/01/23 02:34:08;;;;;;;16.70;9.10;;;;;;;4.55;100.00;100358.23;51733;1267;1077313;-76
2024/01/23 02:36:53;;;;;;;17.10;8.80;;;;;;;4.54;100.00;100360.09;51867;1264;1077131;-75
2024/01/23 02:39:39;;;;;;;14.00;9.10;;;;;;;4.54;100.00;100365.81;51846;1257;1076886;-76
2024/01/23 02:42:24;;;;;;;14.20;9.20;;;;;;;4.55;100.00;100374.21;51789;1262;1076822;-77
2024/01/23 02:45:10;;;;;;;13.80;8.70;;;;;;;4.54;100.00;100378.63;51750;1262;1076314;-76
2024/01/23 02:47:56;;;;;;;15.70;8.30;;;;;;;4.56;100.00;100385.36;51704;1264;1076220;-77
2024/01/23 02:50:42;;;;;;;18.00;9.20;;;;;;;4.57;100.00;100388.13;51722;1258;1075967;-77
2024/01/23 02:53:28;;;;;;;14.90;8.40;;;;;;;4.56;100.00;100383.20;51701;1259;1076465;-75
2024/01/23 02:56:14;;;;;;;12.80;8.00;;;;;;;4.56;100.00;100375.96;51852;1256;1077320;-77
2024/01/23 02:59:00;;;;;;;13.50;8.50;;;;;;;4.55;100.00;100386.16;51867;1258;1076856;-77
2024/01/23 03:01:46;;;;;;;16.00;8.20;;;;;;;4.55;100.00;100381.27;51809;1262;1076806;-77
2024/01/23 03:04:32;;;;;;;15.70;8.70;;;;;;;4.53;100.00;100394.65;51687;1258;1076581;-76
2024/01/23 03:07:18;;;;;;;15.40;8.70;;;;;;;4.53;100.00;100389.88;51687;1257;1076768;-77
2024/01/23 03:10:04;;;;;;;13.90;8.60;;;;;;;4.53;100.00;100396.27;51676;1264;1076356;-76
2024/01/23 03:12:50;;;;;;;14.80;8.20;;;;;;;4.53;100.00;100390.50;51636;1274;1076558;-77
2024/01/23 03:15:36;;;;;;;21.80;9.20;;;;;;;4.51;100.00;100381.34;51958;1264;1076430;-77
2024/01/23 03:18:22;;;;;;;14.40;8.10;;;;;;;4.49;100.00;100382.08;51669;1257;1077588;-73
2024/01/23 03:21:08;;;;;;;14.80;8.70;;;;;;;4.47;100.00;100388.44;51780;1261;1076588;-75
2024/01/23 03:23:53;;;;;;;14.40;8.60;;;;;;;4.44;100.00;100395.44;51801;1257;1076506;-76
2024/01/23 03:26:39;;;;;;;13.50;8.00;;;;;;;4.42;100.00;100401.15;51828;1258;1076621;-76
2024/01/23 03:29:26;;;;;;;18.40;8.60;;;;;;;4.39;100.00;100400.94;51706;1258;1076726;-76
2024/01/23 03:32:12;;;;;;;15.10;7.80;;;;;;;4.38;100.00;100393.77;51816;1258;1077183;-77
2024/01/23 03:34:58;;;;;;;14.00;7.70;;;;;;;4.38;100.00;100399.11;51817;1262;1076527;-76
2024/01/23 03:37:44;;;;;;;18.00;8.20;;;;;;;4.35;100.00;100394.36;51823;1262;1078318;-76
2024/01/23 03:40:30;;;;;;;13.40;8.20;;;;;;;4.33;100.00;100400.77;51631;1257;1077771;-75
2024/01/23 03:43:16;;;;;;;18.20;8.90;;;;;;;4.30;100.00;100401.45;51712;1259;1075981;-75
2024/01/23 03:46:02;;;;;;;15.40;8.60;;;;;;;4.27;100.00;100407.06;51714;1262;1076507;-76
2024/01/23 03:48:48;;;;;;;16.20;8.50;;;;;;;4.24;100.00;100405.38;51691;1257;1077006;-75
2024/01/23 03:51:33;;;;;;;18.30;9.60;;;;;;;4.21;100.00;100405.02;51872;1258;1076714;-77
2024/01/23 03:54:19;;;;;;;15.30;9.10;;;;;;;4.18;100.00;100409.01;51860;1263;1076179;-77
2024/01/23 03:57:05;;;;;;;16.70;8.90;;;;;;;4.17;100.00;100409.75;51872;1262;1077281;-77
2024/01/23 03:59:50;;;;;;;22.00;9.50;;;;;;;4.16;100.00;100413.14;51725;1260;1076181;-77
2024/01/23 04:02:37;;;;;;;15.70;9.30;;;;;;;4.13;100.00;100413.23;51734;1261;1076034;-76
2024/01/23 04:05:23;;;;;;;17.40;9.50;;;;;;;4.12;100.00;100423.63;51751;1258;1076170;-77
2024/01/23 04:08:08;;;;;;;16.60;9.50;;;;;;;4.09;100.00;100425.26;51749;1262;1076739;-77
2024/01/23 04:10:57;;;;;;;20.90;9.90;;;;;;;4.07;100.00;100427.91;51774;1259;1077390;-77
2024/01/23 04:13:43;;;;;;;18.80;9.30;;;;;;;4.05;100.00;100426.71;51738;1258;1076846;-76
2024/01/23 04:16:29;;;;;;;14.50;9.00;;;;;;;4.05;100.00;100426.36;51912;1262;1076614;-77
2024/01/23 04:19:15;;;;;;;17.30;8.80;;;;;;;4.04;100.00;100430.25;51708;1264;1076364;-76
2024/01/23 04:22:01;;;;;;;14.90;9.00;;;;;;;4.01;100.00;100437.71;51751;1262;1076050;-77
2024/01/23 04:24:47;;;;;;;16.70;9.40;;;;;;;4.01;100.00;100442.02;51855;1260;1076573;-77
2024/01/23 04:27:32;;;;;;;20.00;9.80;;;;;;;4.01;100.00;100442.34;51831;1261;1076808;-75
2024/01/23 04:30:19;;;;;;;17.00;9.40;;;;;;;4.00;100.00;100442.44;51867;1262;1077169;-76
2024/01/23 04:33:05;;;;;;;20.70;9.40;;;;;;;4.00;100.00;100437.36;51807;1261;1077128;-77
2024/01/23 04:35:51;;;;;;;14.50;9.00;;;;;;;3.98;100.00;100442.48;51860;1264;1076767;-75
2024/01/23 04:38:37;;;;;;;15.60;9.00;;;;;;;3.97;100.00;100439.58;51773;1264;1076952;-76
2024/01/23 04:41:24;;;;;;;16.80;8.40;;;;;;;3.96;100.00;100434.02;51785;1263;1076722;-76
2024/01/23 04:44:10;;;;;;;16.10;8.70;;;;;;;3.95;100.00;100439.40;51727;1262;1076779;-76
2024/01/23 04:46:56;;;;;;;15.60;8.30;;;;;;;3.93;100.00;100443.05;51886;1262;1077574;-74
2024/01/23 04:49:41;;;;;;;18.10;9.00;;;;;;;3.92;100.00;100446.92;51808;1262;1076689;-74
2024/01/23 04:52:27;;;;;;;19.20;9.30;;;;;;;3.90;100.00;100452.77;51704;1258;1076431;-75
2024/01/23 04:55:13;;;;;;;15.70;9.60;;;;;;;3.88;100.00;100454.35;51749;1259;1076714;-74
2024/01/23 04:57:59;;;;;;;17.40;9.40;;;;;;;3.87;100.00;100449.56;51760;1262;1076614;-75
2024/01/23 05:00:45;;;;;;;21.20;9.40;;;;;;;3.85;100.00;100454.13;51744;1262;1076418;-76
2024/01/23 05:03:31;;;;;;;17.20;9.70;;;;;;;3.84;100.00;100454.58;51833;1264;1076052;-75
2024/01/23 05:06:16;;;;;;;18.90;8.90;;;;;;;3.82;100.00;100453.36;51860;1264;1077378;-76
2024/01/23 05:09:02;;;;;;;20.60;9.10;;;;;;;3.81;100.00;100451.02;51863;1262;1076980;-76
2024/01/23 05:11:48;;;;;;;17.10;9.50;;;;;;;3.79;100.00;100450.67;51714;1264;1078188;-75
2024/01/23 05:14:34;;;;;;;17.60;9.80;;;;;;;3.78;100.00;100454.83;51757;1262;1076647;-76
2024/01/23 05:17:20;;;;;;;19.20;8.70;;;;;;;3.76;100.00;100457.42;51820;1262;1076840;-76
2024/01/23 05:20:06;;;;;;;17.50;9.40;;;;;;;3.76;100.00;100461.52;51848;1259;1076459;-75
2024/01/23 05:22:52;;;;;;;17.60;9.60;;;;;;;3.76;100.00;100469.27;51778;1259;1080014;-76
2024/01/23 05:25:38;;;;;;;19.20;9.90;;;;;;;3.76;100.00;100478.33;51834;1258;1076832;-75
2024/01/23 05:28:24;;;;;;;17.90;9.00;;;;;;;3.76;100.00;100481.14;51834;1263;1077440;-77
2024/01/23 05:31:10;;;;;;;16.20;9.10;;;;;;;3.76;100.00;100478.27;51838;1261;1077105;-75
2024/01/23 05:33:56;;;;;;;17.80;10.50;;;;;;;3.75;100.00;100474.98;51824;1263;1076424;-75
2024/01/23 05:36:42;;;;;;;18.10;9.70;;;;;;;3.76;100.00;100487.69;51791;1262;1077992;-76
2024/01/23 05:39:29;;;;;;;17.30;10.80;;;;;;;3.75;100.00;100485.12;51672;1257;1076074;-77
2024/01/23 05:42:15;;;;;;;16.80;9.60;;;;;;;3.76;100.00;100491.20;51795;1271;1076629;-75
2024/01/23 05:45:01;;;;;;;21.30;10.30;;;;;;;3.76;100.00;100483.84;51839;1271;1076363;-76
2024/01/23 05:47:48;;;;;;;18.50;10.00;;;;;;;3.75;100.00;100486.52;51805;1258;1077204;-75
2024/01/23 05:50:34;;;;;;;20.80;11.90;;;;;;;3.75;100.00;100489.59;51855;1261;1076908;-76
2024/01/23 05:53:20;;;;;;;17.40;9.60;;;;;;;3.75;100.00;100488.11;51725;1261;1076960;-76
2024/01/23 05:56:06;;;;;;;18.10;10.00;;;;;;;3.74;100.00;100491.59;51688;1271;1085546;-76
2024/01/23 05:58:52;;;;;;;19.00;11.10;;;;;;;3.72;100.00;100487.73;51677;1261;1076195;-76
2024/01/23 06:01:38;;;;;;;24.20;11.20;;;;;;;3.71;100.00;100490.66;51718;1257;1076526;-77
2024/01/23 06:04:24;;;;;;;21.00;10.60;;;;;;;3.71;100.00;100487.52;51764;1267;1076072;-76
2024/01/23 06:07:10;;;;;;;20.40;10.30;;;;;;;3.71;100.00;100489.81;51829;1257;1076180;-74
2024/01/23 06:09:56;;;;;;;21.00;11.10;;;;;;;3.72;100.00;100491.80;51850;1261;1076257;-76
2024/01/23 06:12:43;;;;;;;20.90;10.70;;;;;;;3.70;100.00;100492.83;51835;1264;1076392;-76
2024/01/23 06:15:28;;;;;;;19.20;9.50;;;;;;;3.69;100.00;100493.12;51807;1258;1077579;-76
2024/01/23 06:18:14;;;;;;;20.50;10.50;;;;;;;3.68;100.00;100488.10;51840;1261;1076439;-75
2024/01/23 06:21:00;;;;;;;19.20;10.70;;;;;;;3.68;100.00;100490.54;51918;1261;1078131;-75
2024/01/23 06:23:46;;;;;;;19.20;10.20;;;;;;;3.69;100.00;100495.31;51711;1260;1077355;-77
2024/01/23 06:26:32;;;;;;;15.60;9.80;;;;;;;3.68;100.00;100498.52;51738;1260;1076708;-77
2024/01/23 06:29:18;;;;;;;22.90;11.00;;;;;;;3.67;100.00;100498.41;51747;1264;1076905;-75
2024/01/23 06:32:03;;;;;;;17.10;9.90;;;;;;;3.66;100.00;100501.73;51769;1257;1077134;-76
2024/01/23 06:34:50;;;;;;;19.90;10.10;;;;;;;3.64;100.00;100508.77;51885;1257;1076930;-76
2024/01/23 06:37:36;;;;;;;21.00;10.30;;;;;;;3.64;100.00;100503.83;51705;1268;1076290;-76
2024/01/23 06:40:22;;;;;;;18.90;10.40;;;;;;;3.64;100.00;100514.64;51682;1257;1077069;-76
2024/01/23 06:43:08;;;;;;;17.60;10.50;;;;;;;3.62;100.00;100519.19;51772;1258;1076446;-75
2024/01/23 06:45:56;;;;;;;15.00;9.00;;;;;;;3.61;100.00;100524.25;51815;1263;1077416;-74
2024/01/23 06:48:42;;;;;;;18.30;11.00;;;;;;;3.60;100.00;100529.98;51759;1257;1078310;-76
2024/01/23 06:51:28;;;;;;;19.80;10.00;;;;;;;3.59;100.00;100544.06;51884;1260;1076482;-77
2024/01/23 06:54:14;;;;;;;20.00;10.10;;;;;;;3.58;100.00;100542.21;51830;1257;1076677;-76
2024/01/23 06:57:00;;;;;;;17.10;10.30;;;;;;;3.58;100.00;100545.14;51854;1260;1076961;-77
2024/01/23 06:59:46;;;;;;;18.10;9.90;;;;;;;3.59;100.00;100548.61;51748;1261;1077676;-75
2024/01/23 07:02:32;;;;;;;22.70;10.30;;;;;;;3.60;100.00;100547.16;51643;1257;1076014;-75
2024/01/23 07:05:18;;;;;;;22.70;11.00;;;;;;;3.61;100.00;100554.43;51684;1260;1077108;-76
2024/01/23 07:08:04;;;;;;;19.00;11.20;;;;;;;3.62;100.00;100562.08;51733;1260;1076194;-76
2024/01/23 07:10:50;;;;;;;20.50;10.70;;;;;;;3.65;100.00;100565.58;51796;1258;1077693;-77
2024/01/23 07:13:35;;;;;;;17.80;10.40;;;;;;;3.67;100.00;100578.39;51678;1262;1076183;-75
2024/01/23 07:16:22;;;;;;;22.60;10.90;;;;;;;3.72;100.00;100591.23;51873;1257;1076900;-75
2024/01/23 07:19:07;;;;;;;18.10;10.60;;;;;;;3.75;100.00;100592.35;51792;1257;1077634;-76
2024/01/23 07:21:53;;;;;;;19.90;10.60;;;;;;;3.78;100.00;100596.11;51904;1258;1076144;-76
2024/01/23 07:24:39;;;;;;;18.40;10.60;;;;;;;3.81;100.00;100601.48;51845;1257;1076531;-76
2024/01/23 07:27:25;;;;;;;17.20;9.50;;;;;;;3.85;100.00;100601.11;51950;1258;1076698;-77
2024/01/23 07:30:11;;;;;;;19.30;10.90;;;;;;;3.88;100.00;100597.48;51846;1260;1076292;-76
2024/01/23 07:32:57;;;;;;;17.80;10.00;;;;;;;3.91;100.00;100600.55;51792;1261;1076508;-75
2024/01/23 07:35:43;;;;;;;34.00;19.90;;;;;;;3.95;100.00;100606.95;51780;1260;1076527;-76
2024/01/23 07:38:28;;;;;;;106.30;49.80;;;;;;;3.97;100.00;100616.52;51825;1262;1077293;-77
2024/01/23 07:41:14;;;;;;;59.40;28.00;;;;;;;4.00;100.00;100618.63;51768;1258;1076228;-77
2024/01/23 07:44:00;;;;;;;39.00;18.80;;;;;;;4.02;100.00;100621.23;51724;1263;1077321;-77
2024/01/23 07:46:47;;;;;;;29.20;15.60;;;;;;;4.04;100.00;100625.62;51775;1257;1076651;-76
2024/01/23 07:49:33;;;;;;;22.50;12.50;;;;;;;4.06;100.00;100623.80;51743;1260;1076371;-77
2024/01/23 07:52:21;;;;;;;37.70;17.00;;;;;;;4.08;100.00;100622.46;51953;1260;1076192;-75
2024/01/23 07:55:07;;;;;;;37.20;22.70;;;;;;;4.09;100.00;100630.83;51981;1260;1076301;-73
2024/01/23 07:57:52;;;;;;;30.20;17.70;;;;;;;4.10;100.00;100634.24;51702;1260;1076497;-76
2024/01/23 08:00:40;;;;;;;66.50;31.30;;;;;;;4.13;100.00;100641.86;51712;1260;1076160;-75
2024/01/23 08:03:26;;;;;;;40.40;20.30;;;;;;;4.16;100.00;100647.23;51713;1265;1078122;-75
2024/01/23 08:06:12;;;;;;;37.60;17.40;;;;;;;4.19;100.00;100650.99;51844;1274;1076170;-76
2024/01/23 08:08:57;;;;;;;32.20;17.10;;;;;;;4.22;100.00;100648.09;51800;1258;1076773;-76
2024/01/23 08:11:43;;;;;;;31.40;15.20;;;;;;;4.25;100.00;100652.09;51888;1260;1076886;-75
2024/01/23 08:14:29;;;;;;;26.70;13.40;;;;;;;4.27;100.00;100653.67;51777;1263;1076552;-75
2024/01/23 08:17:15;;;;;;;33.00;20.00;;;;;;;4.29;100.00;100656.49;51770;1257;1077260;-74
2024/01/23 08:20:01;;;;;;;20.20;12.10;;;;;;;4.31;100.00;100655.42;51713;1260;1077686;-76
2024/01/23 08:22:47;;;;;;;22.40;12.60;;;;;;;4.32;100.00;100658.59;51769;1260;1076552;-75
2024/01/23 08:25:34;;;;;;;18.00;11.00;;;;;;;4.36;100.00;100661.39;51971;1257;1076851;-75
2024/01/23 08:28:20;;;;;;;18.20;10.90;;;;;;;4.39;100.00;100665.19;51705;1269;1076095;-75
2024/01/23 08:31:06;;;;;;;25.10;18.00;;;;;;;4.42;100.00;100668.45;51787;1260;1076786;-76
2024/01/23 08:33:52;;;;;;;20.40;12.40;;;;;;;4.46;100.00;100671.05;51677;1257;1076909;-76
2024/01/23 08:36:38;;;;;;;17.90;12.10;;;;;;;4.50;100.00;100672.92;51733;1255;1076922;-75
2024/01/23 08:39:24;;;;;;;18.40;12.40;;;;;;;4.57;100.00;100668.20;51699;1262;1076968;-75
2024/01/23 08:42:11;;;;;;;19.90;11.00;;;;;;;4.64;100.00;100666.27;51716;1264;1077319;-76
2024/01/23 08:44:56;;;;;;;19.40;9.70;;;;;;;4.71;100.00;100678.16;51693;1261;1076788;-76
2024/01/23 08:47:42;;;;;;;20.30;9.90;;;;;;;4.76;100.00;100672.81;51728;1260;1079061;-77
2024/01/23 08:50:28;;;;;;;20.70;10.20;;;;;;;4.76;100.00;100677.86;51747;1258;1076466;-76
2024/01/23 08:53:15;;;;;;;22.40;12.10;;;;;;;4.78;100.00;100678.98;51716;1261;1076054;-75
2024/01/23 08:56:00;;;;;;;18.20;9.50;;;;;;;4.81;100.00;100692.66;51837;1257;1077213;-74
2024/01/23 08:58:47;;;;;;;20.00;10.50;;;;;;;4.84;100.00;100698.55;51901;1257;1077965;-75
2024/01/23 09:01:33;;;;;;;20.10;11.30;;;;;;;4.86;100.00;100697.64;51810;1257;1077070;-75
2024/01/23 09:04:19;;;;;;;22.20;10.90;;;;;;;4.87;100.00;100702.10;51969;1257;1076017;-75
2024/01/23 09:07:05;;;;;;;24.90;12.40;;;;;;;4.88;100.00;100707.55;51790;1257;1076683;-75
2024/01/23 09:09:51;;;;;;;23.30;11.10;;;;;;;4.86;100.00;100708.40;51882;1258;1076789;-75
2024/01/23 09:12:37;;;;;;;18.70;9.70;;;;;;;4.87;100.00;100705.65;51907;1261;1077631;-76
2024/01/23 09:15:22;;;;;;;18.50;9.70;;;;;;;4.88;100.00;100701.83;51947;1257;1077106;-75
2024/01/23 09:18:08;;;;;;;22.30;10.90;;;;;;;4.90;100.00;100706.77;51750;1256;1076958;-75
2024/01/23 09:20:56;;;;;;;22.60;12.60;;;;;;;4.93;100.00;100707.73;51706;1257;1076827;-75
2024/01/23 09:23:41;;;;;;;18.00;9.20;;;;;;;4.98;100.00;100716.77;51850;1257;1076139;-75
2024/01/23 09:26:27;;;;;;;22.30;12.40;;;;;;;5.02;100.00;100721.73;51880;1258;1077492;-76
2024/01/23 09:29:13;;;;;;;15.00;9.10;;;;;;;5.04;100.00;100718.65;51811;1260;1077346;-76
2024/01/23 09:32:02;;;;;;;14.90;8.70;;;;;;;5.04;100.00;100714.75;51828;1260;1077746;-76
2024/01/23 09:34:48;;;;;;;22.20;8.40;;;;;;;5.05;100.00;100726.02;51841;1255;1077646;-75
2024/01/23 09:37:34;;;;;;;16.20;8.50;;;;;;;5.07;100.00;100732.70;51867;1260;1076980;-75
2024/01/23 09:40:20;;;;;;;19.50;8.70;;;;;;;5.09;100.00;100725.56;51819;1257;1076854;-75
2024/01/23 09:43:11;;;;;;;19.30;8.60;;;;;;;5.13;100.00;100726.61;51706;1256;1076399;-76
2024/01/23 09:45:58;;;;;;;;;;;;;;;5.18;100.00;100720.52;51931;1257;1076104;-74
2024/01/23 09:48:47;;;;;;;18.20;7.40;;;;;;;5.20;100.00;100724.64;51756;1260;1077487;-75
2024/01/23 09:51:34;;;;;;;19.40;8.00;;;;;;;5.23;100.00;100724.52;53281;1256;1076534;-76
2024/01/23 09:54:23;;;;;;;16.80;7.50;;;;;;;5.31;100.00;100733.02;52546;1257;1076795;-75
2024/01/23 09:57:09;;;;;;;14.80;7.00;;;;;;;5.41;100.00;100735.30;51911;1261;1077514;-75
2024/01/23 09:59:55;;;;;;;18.10;7.70;;;;;;;5.53;100.00;100732.23;51865;1257;1076022;-75
2024/01/23 10:02:43;;;;;;;14.90;6.40;;;;;;;5.62;100.00;100740.23;51822;1272;1077287;-75
2024/01/23 10:05:29;;;;;;;17.00;7.00;;;;;;;5.66;100.00;100732.64;51766;1255;1076497;-76
2024/01/23 10:08:14;;;;;;;12.10;6.20;;;;;;;5.71;100.00;100738.89;51696;1260;1076450;-75
2024/01/23 10:11:01;;;;;;;16.00;6.40;;;;;;;5.74;100.00;100737.92;51731;1260;1076660;-76
2024/01/23 10:13:47;;;;;;;16.40;5.80;;;;;;;5.76;100.00;100740.05;51714;1257;1077437;-75
2024/01/23 10:16:33;;;;;;;16.10;6.40;;;;;;;5.77;100.00;100739.40;52040;1257;1077211;-76
2024/01/23 10:19:19;;;;;;;15.20;6.70;;;;;;;5.78;100.00;100742.00;51720;1260;1076364;-75
2024/01/23 10:22:05;;;;;;;18.50;8.70;;;;;;;5.77;100.00;100740.46;51838;1257;1076299;-77
2024/01/23 10:24:51;;;;;;;16.00;6.40;;;;;;;5.76;100.00;100740.00;51858;1257;1077509;-77
2024/01/23 10:27:37;;;;;;;59.70;24.70;;;;;;;5.77;100.00;100741.36;51772;1256;1076929;-75
2024/01/23 10:30:23;;;;;;;39.40;18.00;;;;;;;5.76;100.00;100748.29;51845;1256;1077697;-76
2024/01/23 10:33:10;;;;;;;22.70;13.00;;;;;;;5.78;99.98;100741.98;51777;1260;1077186;-74
2024/01/23 10:35:58;;;;;;;25.20;11.20;;;;;;;5.79;99.98;100742.55;51716;1261;1076759;-75
2024/01/23 10:38:46;;;;;;;17.50;8.80;;;;;;;5.80;99.98;100747.08;51891;1260;1076907;-76
2024/01/23 10:41:33;;;;;;;12.60;7.10;;;;;;;5.81;100.00;100739.35;51885;1260;1077021;-76
2024/01/23 10:44:22;;;;;;;11.00;6.30;;;;;;;5.83;100.00;100738.27;51857;1257;1078339;-76
2024/01/23 10:47:08;;;;;;;17.50;6.90;;;;;;;5.83;99.90;100743.20;51733;1260;1078215;-75
2024/01/23 10:49:54;;;;;;;14.60;5.30;;;;;;;5.83;99.69;100739.79;51800;1265;1078010;-77
2024/01/23 10:52:45;;;;;;;16.80;5.90;;;;;;;5.86;99.63;100746.15;51887;1257;1076552;-75
2024/01/23 10:55:38;;;;;;;14.20;6.40;;;;;;;5.88;99.71;100752.46;51741;1261;1076301;-76
2024/01/23 10:58:30;;;;;;;15.40;7.40;;;;;;;5.89;99.49;100760.17;52063;1258;1076265;-74
2024/01/23 11:01:16;;;;;;;17.00;7.20;;;;;;;5.89;99.31;100762.83;51898;1256;1076383;-74
2024/01/23 11:04:02;;;;;;;11.60;5.80;;;;;;;5.88;99.18;100758.30;51866;1255;1076434;-76
2024/01/23 11:07:10;;;;;;;16.90;6.70;;;;;;;5.89;98.89;100769.02;51844;1258;1077552;-74
2024/01/23 11:10:20;;;;;;;14.50;6.40;;;;;;;5.90;99.06;100764.98;51765;1260;1076605;-76
2024/01/23 11:13:18;;;;;;;16.10;6.60;;;;;;;5.88;98.96;100769.11;51837;1257;1076151;-76
2024/01/23 11:16:06;;;;;;;14.10;6.30;;;;;;;5.85;98.83;100761.67;52098;1256;1077240;-75
2024/01/23 11:18:54;;;;;;;18.30;6.60;;;;;;;5.84;98.97;100761.92;51931;1257;1076590;-75
2024/01/23 11:21:39;;;;;;;18.60;7.20;;;;;;;5.85;98.62;100766.66;51947;1260;1077349;-75
2024/01/23 11:24:39;;;;;;;14.90;7.30;;;;;;;5.86;98.92;100758.35;51824;1260;1076911;-76
2024/01/23 11:27:25;;;;;;;20.80;9.80;;;;;;;5.87;98.76;100757.77;51796;1255;1077088;-77
2024/01/23 11:30:14;;;;;;;17.30;7.70;;;;;;;5.86;98.82;100760.65;51787;1257;1076839;-77
2024/01/23 11:33:23;;;;;;;16.70;7.50;;;;;;;5.85;98.50;100762.35;51791;1260;1077374;-77
2024/01/23 11:36:26;;;;;;;15.40;7.10;;;;;;;5.86;98.94;100759.23;51683;1264;1076354;-76
2024/01/23 11:39:14;;;;;;;14.70;7.60;;;;;;;5.88;98.76;100757.63;51921;1256;1077380;-76
2024/01/23 11:42:00;;;;;;;16.80;9.50;;;;;;;5.89;98.41;100761.79;52569;1257;1077195;-77
2024/01/23 11:44:45;;;;;;;17.80;8.80;;;;;;;5.91;98.79;100760.10;51914;1261;1076010;-76
2024/01/23 11:47:31;;;;;;;18.70;8.20;;;;;;;5.95;98.64;100764.52;51851;1257;1077661;-76
2024/01/23 11:50:18;;;;;;;20.40;9.40;;;;;;;5.96;98.18;100765.33;51858;1261;1076902;-77
2024/01/23 11:53:04;;;;;;;21.80;8.30;;;;;;;5.99;98.42;100758.65;51830;1261;1076601;-75
2024/01/23 11:55:49;;;;;;;17.70;7.80;;;;;;;6.03;98.17;100761.94;51924;1255;1076907;-76
2024/01/23 11:58:35;;;;;;;17.80;7.20;;;;;;;6.07;98.32;100757.31;51834;1260;1077461;-75
2024/01/23 12:01:23;;;;;;;19.10;9.10;;;;;;;6.10;98.18;100750.39;51887;1260;1076987;-82
2024/01/23 12:04:09;;;;;;;37.90;15.50;;;;;;;6.09;98.02;100753.84;52196;1257;1076846;-83
2024/01/23 12:06:55;;;;;;;27.60;13.20;;;;;;;6.08;97.81;100756.86;52410;1260;1076998;-81
2024/01/23 12:09:42;;;;;;;15.60;9.00;;;;;;;6.05;97.53;100759.77;52314;1260;1077666;-81
2024/01/23 12:12:27;;;;;;;20.50;8.40;;;;;;;6.04;97.55;100757.38;52413;1260;1076435;-83
2024/01/23 12:15:14;;;;;;;16.40;8.60;;;;;;;6.05;97.63;100760.63;52207;1258;1077235;-84
2024/01/23 12:17:59;;;;;;;16.60;8.20;;;;;;;6.09;97.40;100768.96;52342;1255;1077402;-81
2024/01/23 12:20:49;;;;;;;12.50;6.90;;;;;;;6.13;97.39;100770.83;52187;1260;1076292;-82
2024/01/23 12:23:35;;;;;;;15.40;7.40;;;;;;;6.15;97.30;100769.57;52096;1257;1077318;-78
2024/01/23 12:26:21;;;;;;;17.80;9.10;;;;;;;6.17;97.21;100765.80;51908;1257;1078568;-81